Time;durP1;ratioP1;P1;durP2;ratioP2;P2;SDS_P1;SDS_P2;PMS_P1;PMS_P2;Temp;Humidity;BMP_temperature;BMP_pressure;BME280_temperature;BME280_humidity;BME280_pressure;Samples;Min_cycle;Max_cycle;Signal;HPM_P1;HPM_P2
2022/08/07 00:00:35;;;;;;;3.70;1.50;;;;;;;-144.47;41.14;53181.84;5067988;28;20044;-69
2022/08/07 00:03:00;;;;;;;3.85;1.60;;;;;;;-144.47;41.02;53207.66;5077796;28;20644;-68
2022/08/07 00:05:26;;;;;;;4.13;1.75;;;;;;;-144.47;41.16;53185.81;5068651;28;20032;-67
2022/08/07 00:07:53;;;;;;;5.82;2.00;;;;;;;-144.47;41.21;53199.72;5066362;28;20482;-67
2022/08/07 00:10:19;;;;;;;3.22;1.50;;;;;;;-144.47;41.31;53179.84;5049851;28;20012;-67
2022/08/07 00:12:44;;;;;;;5.22;1.50;;;;;;;-144.47;41.51;53189.78;5049871;28;20396;-68
2022/08/07 00:15:10;;;;;;;3.20;1.42;;;;;;;-144.47;41.70;53181.84;5067450;28;20024;-67
2022/08/07 00:17:35;;;;;;;6.25;1.70;;;;;;;-144.47;41.81;53185.81;5067764;28;20351;-70
2022/08/07 00:20:02;;;;;;;8.10;1.63;;;;;;;-144.47;41.61;53163.97;5045435;28;20537;-69
2022/08/07 00:22:27;;;;;;;3.88;1.50;;;;;;;-144.47;41.74;53185.81;5066260;28;20470;-68
2022/08/07 00:24:52;;;;;;;2.88;1.45;;;;;;;-144.47;41.85;53181.84;5067659;28;20028;-67
2022/08/07 00:27:17;;;;;;;6.85;1.63;;;;;;;-144.47;41.92;53199.72;5067134;28;20035;-68
2022/08/07 00:29:43;;;;;;;4.65;1.55;;;;;;;-144.47;42.02;53199.72;5065979;28;20028;-69
2022/08/07 00:32:11;;;;;;;3.33;1.30;;;;;;;-144.47;42.10;53205.66;5067101;28;20036;-70
2022/08/07 00:34:36;;;;;;;13.33;1.57;;;;;;;-144.47;42.17;53175.88;5066982;28;20036;-64
2022/08/07 00:37:02;;;;;;;4.28;1.48;;;;;;;-144.47;42.32;53169.91;5065066;28;20080;-67
2022/08/07 00:39:27;;;;;;;3.42;1.30;;;;;;;-144.47;42.43;53171.91;5067017;28;20027;-66
2022/08/07 00:41:56;;;;;;;5.75;1.70;;;;;;;-144.47;42.70;53217.59;5066594;28;20036;-67
2022/08/07 00:44:23;;;;;;;3.05;1.40;;;;;;;-144.47;42.61;53173.88;5067995;28;20047;-65
2022/08/07 00:46:48;;;;;;;3.60;1.42;;;;;;;-144.47;42.80;53209.66;5067532;28;20409;-68
2022/08/07 00:49:14;;;;;;;2.95;1.20;;;;;;;-144.47;42.69;53189.78;5068201;28;20021;-68
2022/08/07 00:51:39;;;;;;;2.10;1.25;;;;;;;-144.47;42.73;53225.53;5067901;28;20027;-67
2022/08/07 00:54:06;;;;;;;2.63;1.20;;;;;;;-144.47;42.83;53193.75;5070396;28;20036;-66
2022/08/07 00:56:32;;;;;;;2.58;1.20;;;;;;;-144.47;42.89;53199.72;5070849;28;20506;-66
2022/08/07 00:58:57;;;;;;;4.95;1.30;;;;;;;-144.47;42.97;53199.72;5071813;28;20354;-68
2022/08/07 01:01:23;;;;;;;2.92;1.35;;;;;;;-144.47;43.05;53205.66;5070935;28;20518;-64
2022/08/07 01:03:50;;;;;;;4.05;1.48;;;;;;;-144.47;43.18;53167.94;5071762;28;20532;-66
2022/08/07 01:06:16;;;;;;;2.95;1.30;;;;;;;-144.47;42.97;53181.84;5053215;28;20047;-64
2022/08/07 01:08:42;;;;;;;4.10;1.75;;;;;;;-144.47;43.16;53215.59;5070950;28;20028;-65
2022/08/07 01:11:08;;;;;;;15.30;1.35;;;;;;;-144.47;43.14;53203.69;5071655;28;20096;-66
2022/08/07 01:13:34;;;;;;;4.93;1.50;;;;;;;-144.47;43.15;53181.84;5071565;28;20107;-67
2022/08/07 01:16:01;;;;;;;3.40;1.33;;;;;;;-144.47;43.35;53177.88;5071117;28;20032;-67
2022/08/07 01:18:28;;;;;;;3.88;1.30;;;;;;;-144.47;43.44;53197.72;5064517;28;20005;-64
2022/08/07 01:21:23;;;;;;;4.75;1.50;;;;;;;-144.47;43.54;53231.50;5068229;28;20051;-67
2022/08/07 01:23:49;;;;;;;7.75;1.67;;;;;;;-144.47;44.23;53195.75;5070683;28;20059;-67
2022/08/07 01:26:16;;;;;;;9.52;2.60;;;;;;;-144.47;44.34;53207.66;5070662;28;20020;-65
2022/08/07 01:28:47;;;;;;;10.80;4.65;;;;;;;-144.47;45.01;53199.72;5071329;28;20432;-67
2022/08/07 01:31:14;;;;;;;9.73;4.78;;;;;;;-144.47;45.28;53181.84;5070999;28;20024;-67
2022/08/07 01:33:42;;;;;;;12.27;5.05;;;;;;;-144.47;45.62;53201.69;5071023;28;20488;-66
2022/08/07 01:36:09;;;;;;;10.55;4.30;;;;;;;-144.47;45.88;53193.75;5071411;28;20126;-65
2022/08/07 01:38:35;;;;;;;9.80;4.00;;;;;;;-144.47;46.36;53239.44;5069611;28;20346;-65
2022/08/07 01:41:02;;;;;;;10.30;3.40;;;;;;;-144.47;46.43;53215.59;5052785;28;20066;-66
2022/08/07 01:43:29;;;;;;;14.43;3.33;;;;;;;-144.47;46.62;53235.47;5091680;22;20123;-69
2022/08/07 01:45:56;;;;;;;8.45;2.67;;;;;;;-144.47;46.66;53227.53;5071848;28;20496;-67
2022/08/07 01:48:22;;;;;;;17.42;3.17;;;;;;;-144.47;46.71;53199.72;5071649;28;20035;-69
2022/08/07 01:50:56;;;;;;;7.38;2.47;;;;;;;-144.47;46.83;53207.66;5072338;28;20040;-69
2022/08/07 01:53:22;;;;;;;11.05;2.95;;;;;;;-144.47;47.09;53227.53;5071486;28;20016;-66
2022/08/07 01:55:55;;;;;;;6.30;3.40;;;;;;;-144.47;47.30;53189.78;5072338;28;20025;-65
2022/08/07 01:58:22;;;;;;;9.25;3.50;;;;;;;-144.47;47.61;53205.66;5067202;28;20017;-66
2022/08/07 02:00:56;;;;;;;8.63;3.55;;;;;;;-144.47;47.54;53201.69;5051543;28;20029;-68
2022/08/07 02:03:22;;;;;;;8.23;2.92;;;;;;;-144.47;47.31;53211.63;5050744;28;20032;-64
2022/08/07 02:05:52;;;;;;;7.75;3.38;;;;;;;-144.47;47.50;53239.44;5050601;28;20032;-67
2022/08/07 02:08:21;;;;;;;7.22;2.85;;;;;;;-144.47;47.72;53215.59;5053152;28;20039;-65
2022/08/07 02:10:51;;;;;;;11.27;2.90;;;;;;;-144.47;47.82;53205.66;5054219;28;20032;-67
2022/08/07 02:13:20;;;;;;;6.03;2.70;;;;;;;-144.47;47.99;53261.28;5051632;28;20052;-67
2022/08/07 02:15:47;;;;;;;6.88;2.30;;;;;;;-144.47;47.62;53221.56;5051328;28;20166;-68
2022/08/07 02:18:14;;;;;;;6.65;2.45;;;;;;;-144.47;47.45;53225.53;5049916;28;20013;-69
2022/08/07 02:20:42;;;;;;;8.00;2.65;;;;;;;-144.47;47.62;53237.44;5052253;28;20023;-68
2022/08/07 02:23:09;;;;;;;6.00;2.65;;;;;;;-144.47;48.08;53225.53;5050706;28;20108;-68
2022/08/07 02:25:37;;;;;;;8.18;2.35;;;;;;;-144.47;47.55;53211.63;5052045;28;20429;-65
2022/08/07 02:28:05;;;;;;;7.50;2.95;;;;;;;-144.47;47.71;53201.69;5051239;28;20021;-67
2022/08/07 02:30:32;;;;;;;7.47;2.63;;;;;;;-144.47;48.11;53173.88;5052034;28;20096;-67
2022/08/07 02:32:58;;;;;;;4.90;2.53;;;;;;;-144.47;48.29;53231.50;5051138;28;20023;-66
2022/08/07 02:35:26;;;;;;;4.43;1.90;;;;;;;-144.47;48.48;53209.66;5051554;28;20458;-66
2022/08/07 02:37:52;;;;;;;8.27;3.00;;;;;;;-144.47;48.48;53221.56;5050115;28;20025;-67
2022/08/07 02:40:18;;;;;;;8.05;2.20;;;;;;;-144.47;48.77;53229.50;5048909;28;20034;-68
2022/08/07 02:42:45;;;;;;;6.90;2.80;;;;;;;-144.47;48.83;53225.53;5046867;28;20446;-66
2022/08/07 02:45:15;;;;;;;5.10;2.10;;;;;;;-144.47;48.95;53223.56;5051326;28;20028;-67
2022/08/07 02:47:41;;;;;;;6.68;2.08;;;;;;;-144.47;49.01;53195.75;5050209;28;20056;-65
2022/08/07 02:50:07;;;;;;;5.43;2.25;;;;;;;-144.47;49.08;53235.47;5051354;28;20604;-69
2022/08/07 02:52:38;;;;;;;10.45;2.92;;;;;;;-144.47;48.95;53251.34;5050574;28;20096;-68
2022/08/07 02:55:09;;;;;;;4.18;2.30;;;;;;;-144.47;49.11;53213.63;5051344;28;20020;-65
2022/08/07 02:57:36;;;;;;;7.47;2.38;;;;;;;-144.47;48.57;53229.50;5050202;28;20017;-64
2022/08/07 03:00:04;;;;;;;7.38;2.88;;;;;;;-144.47;48.66;53229.50;5051657;28;20052;-67
2022/08/07 03:02:29;;;;;;;6.28;2.47;;;;;;;-144.47;48.75;53263.28;5051078;28;20146;-68
2022/08/07 03:04:57;;;;;;;8.98;2.08;;;;;;;-144.47;48.76;53251.34;5051474;28;20151;-67
2022/08/07 03:07:23;;;;;;;7.07;2.25;;;;;;;-144.47;48.98;53233.47;5049649;28;20392;-67
2022/08/07 03:09:49;;;;;;;5.82;2.20;;;;;;;-144.47;49.11;53213.63;5051289;28;20581;-67
2022/08/07 03:12:15;;;;;;;7.00;2.05;;;;;;;-144.47;49.38;53223.56;5051331;28;20071;-64
2022/08/07 03:14:42;;;;;;;8.85;2.60;;;;;;;-144.47;49.75;53237.44;5050933;28;20028;-67
2022/08/07 03:17:08;;;;;;;4.75;2.10;;;;;;;-144.47;49.69;53239.44;5048838;28;20032;-66
2022/08/07 03:19:34;;;;;;;6.22;2.20;;;;;;;-144.47;49.75;53231.50;5049369;28;20020;-67
2022/08/07 03:22:02;;;;;;;5.80;2.20;;;;;;;-144.47;49.92;53223.56;5050663;28;20501;-67
2022/08/07 03:24:27;;;;;;;5.82;2.40;;;;;;;-144.47;50.33;53197.72;5048891;28;20079;-64
2022/08/07 03:26:58;;;;;;;11.68;2.70;;;;;;;-144.47;50.50;53215.59;5050236;28;20028;-67
2022/08/07 03:29:38;;;;;;;13.98;5.93;;;;;;;-144.47;50.50;53215.59;5032588;28;20104;-65
2022/08/07 03:32:07;;;;;;;6.45;2.30;;;;;;;-144.47;51.03;53241.44;5049723;28;20103;-65
2022/08/07 03:34:35;;;;;;;12.43;2.88;;;;;;;-144.47;51.34;53203.69;5050010;28;20071;-67
2022/08/07 03:37:02;;;;;;;6.38;2.92;;;;;;;-144.47;51.38;53197.72;5049248;28;20028;-65
2022/08/07 03:39:30;;;;;;;10.32;2.45;;;;;;;-144.47;51.29;53225.53;5049737;28;20024;-66
2022/08/07 03:41:56;;;;;;;7.38;2.78;;;;;;;-144.47;51.17;53213.63;5049708;28;20021;-67
2022/08/07 03:44:22;;;;;;;32.10;3.95;;;;;;;-144.47;51.26;53217.59;5049939;28;20096;-65
2022/08/07 03:46:48;;;;;;;6.65;2.75;;;;;;;-144.47;51.37;53207.66;5049321;28;20444;-67
2022/08/07 03:49:14;;;;;;;4.88;2.08;;;;;;;-144.47;51.59;53225.53;5049745;28;20020;-67
2022/08/07 03:51:40;;;;;;;10.55;2.83;;;;;;;-144.47;51.45;53223.56;5049884;28;20405;-67
2022/08/07 03:54:05;;;;;;;8.13;2.47;;;;;;;-144.47;51.04;53207.66;5049531;28;20025;-68
2022/08/07 03:56:33;;;;;;;5.53;1.95;;;;;;;-144.47;50.94;53217.59;5049486;28;20215;-64
2022/08/07 03:59:00;;;;;;;5.97;2.10;;;;;;;-144.47;50.65;53225.53;5049920;28;20453;-66
2022/08/07 04:01:28;;;;;;;5.82;1.88;;;;;;;-144.47;50.58;53239.44;5049556;28;20082;-66
2022/08/07 04:03:54;;;;;;;5.45;1.77;;;;;;;-144.47;51.34;53235.47;5049582;28;20493;-66
2022/08/07 04:06:20;;;;;;;6.03;2.00;;;;;;;-144.47;51.53;53213.63;5049174;28;20021;-66
2022/08/07 04:08:46;;;;;;;5.18;2.03;;;;;;;-144.47;52.28;53213.63;5049032;28;20079;-67
2022/08/07 04:11:11;;;;;;;4.88;2.10;;;;;;;-144.47;51.17;53241.44;5050121;28;20025;-65
2022/08/07 04:13:38;;;;;;;9.95;2.08;;;;;;;-144.47;51.67;53217.59;5049456;28;20478;-65
2022/08/07 04:16:04;;;;;;;5.63;1.88;;;;;;;-144.47;50.65;53235.47;5049496;28;20091;-67
2022/08/07 04:18:29;;;;;;;3.03;1.50;;;;;;;-144.47;50.55;53227.53;5048690;28;20512;-66
2022/08/07 04:20:55;;;;;;;4.35;1.88;;;;;;;-144.47;50.57;53229.50;5049603;28;20071;-67
2022/08/07 04:23:22;;;;;;;2.80;1.60;;;;;;;-144.47;50.21;53267.25;5048501;28;20154;-68
2022/08/07 04:25:48;;;;;;;3.67;1.60;;;;;;;-144.47;50.19;53245.41;5048144;28;20025;-68
2022/08/07 04:28:13;;;;;;;8.45;1.88;;;;;;;-144.47;50.28;53221.56;5050685;28;20021;-66
2022/08/07 04:30:40;;;;;;;6.07;1.80;;;;;;;-144.47;50.25;53225.53;5053620;28;20052;-66
2022/08/07 04:33:09;;;;;;;6.38;1.90;;;;;;;-144.47;50.19;53227.53;5052759;28;20466;-65
2022/08/07 04:35:36;;;;;;;5.03;1.60;;;;;;;-144.47;49.99;53245.41;5053737;28;20110;-67
2022/08/07 04:38:09;;;;;;;4.45;1.60;;;;;;;-144.47;49.89;53207.66;5052164;28;20017;-67
2022/08/07 04:40:39;;;;;;;6.97;1.60;;;;;;;-144.47;49.88;53211.63;5049575;28;20111;-65
2022/08/07 04:43:04;;;;;;;6.32;1.73;;;;;;;-144.47;49.97;53201.69;5051260;28;20048;-69
2022/08/07 04:45:54;;;;;;;5.60;1.55;;;;;;;-144.47;49.76;53193.75;5071701;28;20350;-66
2022/08/07 04:48:52;;;;;;;2.80;1.50;;;;;;;-144.47;50.14;53237.44;5054075;28;20551;-70
2022/08/07 04:51:31;;;;;;;5.20;1.70;;;;;;;-144.47;50.10;53173.88;5053460;28;20061;-66
2022/08/07 04:54:02;;;;;;;12.98;2.55;;;;;;;-144.47;50.30;53243.41;5052537;28;20413;-68
2022/08/07 04:56:43;;;;;;;2.97;1.65;;;;;;;-144.47;50.28;53225.53;5052742;28;20016;-69
2022/08/07 04:59:31;;;;;;;7.85;1.60;;;;;;;-144.47;49.90;53237.44;5054158;28;20470;-68
2022/08/07 05:02:09;;;;;;;4.63;1.30;;;;;;;-144.47;49.69;53211.63;5053612;28;20047;-64
2022/08/07 05:04:45;;;;;;;10.10;1.67;;;;;;;-144.47;49.59;53211.63;5053954;28;20424;-67
2022/08/07 05:07:15;;;;;;;3.20;1.67;;;;;;;-144.47;49.55;53239.44;5051597;28;20037;-68
2022/08/07 05:10:03;;;;;;;4.63;1.52;;;;;;;-144.47;49.29;53203.69;5052989;28;20020;-66
2022/08/07 05:12:38;;;;;;;4.97;1.63;;;;;;;-144.47;49.43;53197.72;5042843;28;20040;-68
2022/08/07 05:15:15;;;;;;;4.95;1.70;;;;;;;-144.47;49.38;53227.53;5052481;28;20025;-65
2022/08/07 05:17:50;;;;;;;6.90;1.73;;;;;;;-144.47;48.99;53207.66;5051892;28;20035;-67
2022/08/07 05:20:20;;;;;;;5.07;1.70;;;;;;;-144.47;49.01;53213.63;5050561;28;20029;-66
2022/08/07 05:22:48;;;;;;;6.38;1.75;;;;;;;-144.47;49.14;53207.66;5052170;28;20454;-66
2022/08/07 05:25:15;;;;;;;4.00;1.73;;;;;;;-144.47;48.85;53181.84;5052273;28;20100;-65
2022/08/07 05:27:42;;;;;;;6.20;1.50;;;;;;;-144.47;48.72;53237.44;5051743;28;20025;-66
2022/08/07 05:30:08;;;;;;;4.32;1.65;;;;;;;-144.47;48.49;53191.78;5034339;28;20100;-63
2022/08/07 05:32:36;;;;;;;6.47;1.60;;;;;;;-144.47;48.29;53249.38;5052071;28;20012;-68
2022/08/07 05:35:02;;;;;;;6.22;1.80;;;;;;;-144.47;47.96;53217.59;5053941;28;20091;-67
2022/08/07 05:37:30;;;;;;;2.10;1.30;;;;;;;-144.47;48.09;53227.53;5053044;28;20028;-65
2022/08/07 05:39:55;;;;;;;4.18;1.67;;;;;;;-144.47;48.16;53209.66;5051671;28;20039;-66
2022/08/07 05:42:21;;;;;;;5.32;1.88;;;;;;;-144.47;48.24;53161.97;5052411;28;20024;-66
2022/08/07 05:44:47;;;;;;;4.20;1.60;;;;;;;-144.47;47.62;53201.69;5052962;28;20098;-63
2022/08/07 05:47:18;;;;;;;3.15;1.50;;;;;;;-144.47;47.42;53205.66;5051159;28;20039;-67
2022/08/07 05:49:46;;;;;;;2.75;1.55;;;;;;;-144.47;46.55;53203.69;5052732;28;20017;-67
2022/08/07 05:52:12;;;;;;;7.43;1.65;;;;;;;-144.47;46.79;53187.78;5051684;28;20029;-66
2022/08/07 05:54:37;;;;;;;12.70;1.77;;;;;;;-144.47;46.90;53217.59;5052617;28;20098;-64
2022/08/07 05:57:04;;;;;;;7.30;1.58;;;;;;;-144.47;46.77;53207.66;5049819;28;20023;-64
2022/08/07 05:59:31;;;;;;;8.35;1.80;;;;;;;-144.47;46.54;53205.66;5033514;28;20021;-65
2022/08/07 06:01:57;;;;;;;6.07;1.63;;;;;;;-144.47;45.68;53199.72;5051717;28;20025;-67
2022/08/07 06:04:23;;;;;;;2.72;1.25;;;;;;;-144.47;45.61;53205.66;5051754;28;20509;-67
2022/08/07 06:06:48;;;;;;;4.38;1.60;;;;;;;-144.47;45.04;53213.63;5051060;28;20079;-67
2022/08/07 06:09:16;;;;;;;4.03;1.08;;;;;;;-144.47;43.80;53201.69;5039599;28;20411;-67
2022/08/07 06:11:42;;;;;;;3.75;1.20;;;;;;;-144.47;44.16;53207.66;5051894;28;20025;-70
2022/08/07 06:14:07;;;;;;;2.85;1.10;;;;;;;-144.47;44.21;53203.69;5051835;28;20023;-63
2022/08/07 06:16:34;;;;;;;3.65;1.08;;;;;;;-144.47;43.32;53203.69;5051219;28;20025;-66
2022/08/07 06:19:00;;;;;;;4.97;1.20;;;;;;;-144.47;43.34;53193.75;5051543;28;20092;-63
2022/08/07 06:21:27;;;;;;;3.70;1.40;;;;;;;-144.47;42.62;53203.69;5052024;28;20497;-67
2022/08/07 06:23:53;;;;;;;2.78;1.02;;;;;;;-144.47;42.25;53203.69;5051367;28;20025;-68
2022/08/07 06:26:18;;;;;;;6.88;1.20;;;;;;;-144.47;42.39;53191.78;5051850;28;20029;-65
2022/08/07 06:28:56;;;;;;;1.98;0.98;;;;;;;-144.47;42.44;53193.75;5052004;28;20017;-68
2022/08/07 06:31:22;;;;;;;9.83;1.20;;;;;;;-144.47;42.18;53191.78;5052409;28;20108;-67
2022/08/07 06:33:48;;;;;;;3.28;0.95;;;;;;;-144.47;42.78;53191.78;5051286;28;20108;-68
2022/08/07 06:36:13;;;;;;;2.85;1.08;;;;;;;-144.47;42.45;53181.84;5050982;28;20052;-66
2022/08/07 06:38:41;;;;;;;1.90;1.10;;;;;;;-144.47;41.60;53189.78;5050734;28;20045;-64
2022/08/07 06:41:17;;;;;;;3.33;1.30;;;;;;;-144.47;41.32;53177.88;5045205;28;20027;-67
2022/08/07 06:43:45;;;;;;;1.75;1.10;;;;;;;-144.47;41.48;53183.81;5051290;28;20067;-67
2022/08/07 06:46:11;;;;;;;1.65;0.90;;;;;;;-144.47;41.60;53126.22;5050762;28;20425;-65
2022/08/07 06:48:37;;;;;;;4.03;1.08;;;;;;;-144.47;41.48;53163.97;5049930;28;20029;-68
2022/08/07 06:51:06;;;;;;;1.80;0.90;;;;;;;-144.47;41.51;53163.97;5051034;28;20029;-65
2022/08/07 06:53:35;;;;;;;8.48;0.95;;;;;;;-144.47;41.58;53165.94;5050204;28;20017;-66
2022/08/07 06:56:02;;;;;;;2.38;1.00;;;;;;;-144.47;41.26;53169.91;5049733;28;20060;-67
2022/08/07 06:58:28;;;;;;;9.98;1.27;;;;;;;-144.47;41.16;53175.88;5050334;28;20058;-66
2022/08/07 07:00:56;;;;;;;2.42;1.10;;;;;;;-144.47;40.66;53173.88;5043831;28;20370;-70
2022/08/07 07:03:21;;;;;;;6.15;2.17;;;;;;;-144.47;40.64;53161.97;5041919;28;20040;-65
2022/08/07 07:05:47;;;;;;;4.07;1.15;;;;;;;-144.47;40.63;53124.22;5046453;28;20025;-70
2022/08/07 07:08:12;;;;;;;3.58;1.00;;;;;;;-144.47;41.01;53134.16;5060171;28;20462;-66
2022/08/07 07:10:38;;;;;;;2.28;1.00;;;;;;;-144.47;41.01;53163.97;5071102;28;20020;-68
2022/08/07 07:13:13;;;;;;;3.35;1.35;;;;;;;-144.47;41.07;53169.91;5071128;28;20028;-64
2022/08/07 07:15:43;;;;;;;1.52;1.00;;;;;;;-144.47;40.75;53189.78;5070614;28;20021;-66
2022/08/07 07:18:17;;;;;;;2.55;1.30;;;;;;;-144.47;40.73;53187.78;5058340;28;20052;-67
2022/08/07 07:20:49;;;;;;;3.10;0.95;;;;;;;-144.47;40.29;53158.00;5045010;28;20046;-68
2022/08/07 07:23:15;;;;;;;4.35;1.70;;;;;;;-144.47;40.43;53163.97;5045730;28;20028;-66
2022/08/07 07:25:43;;;;;;;4.28;1.38;;;;;;;-144.47;40.18;53195.75;5071017;28;20047;-69
2022/08/07 07:28:22;;;;;;;3.15;1.23;;;;;;;-144.47;39.68;53165.94;5069496;28;20055;-69
2022/08/07 07:30:56;;;;;;;2.50;1.23;;;;;;;-144.47;39.63;53132.19;5081307;28;20099;-67
2022/08/07 07:33:24;;;;;;;5.72;1.30;;;;;;;-144.47;39.59;53175.88;5059732;28;20479;-70
2022/08/07 07:35:52;;;;;;;3.35;1.52;;;;;;;-144.47;39.23;53138.13;5050113;28;20035;-66
2022/08/07 07:38:26;;;;;;;3.03;1.13;;;;;;;-144.47;39.16;53150.06;5048383;28;20054;-67
2022/08/07 07:40:57;;;;;;;4.47;1.40;;;;;;;-144.47;39.07;53144.09;5063856;28;20024;-65
2022/08/07 07:43:26;;;;;;;6.38;1.35;;;;;;;-144.47;39.23;53154.03;5081556;22;20041;-68
2022/08/07 07:45:51;;;;;;;4.75;0.95;;;;;;;-144.47;38.81;53185.81;5069437;28;20020;-68
2022/08/07 07:48:20;;;;;;;1.27;0.82;;;;;;;-144.47;38.46;53114.31;5068510;28;20028;-66
2022/08/07 07:50:47;;;;;;;2.83;1.10;;;;;;;-144.47;38.51;53167.94;5069135;28;20021;-66
2022/08/07 07:53:16;;;;;;;5.90;0.90;;;;;;;-144.47;38.75;53158.00;5088747;28;20114;-67
2022/08/07 07:55:41;;;;;;;4.78;1.02;;;;;;;-144.47;38.38;53120.25;5089477;28;20023;-65
2022/08/07 07:58:08;;;;;;;4.63;1.02;;;;;;;-144.47;38.56;53126.22;5070426;28;20016;-68
2022/08/07 08:00:34;;;;;;;2.65;1.15;;;;;;;-144.47;38.30;53118.28;5069207;28;20028;-69
2022/08/07 08:03:14;;;;;;;6.80;1.27;;;;;;;-144.47;38.09;53154.03;5068409;28;20774;-67
2022/08/07 08:05:41;;;;;;;2.92;1.20;;;;;;;-144.47;37.99;53152.03;5067401;28;20051;-67
2022/08/07 08:08:09;;;;;;;3.70;0.90;;;;;;;-144.47;37.91;53158.00;5057360;28;20445;-67
2022/08/07 08:10:35;;;;;;;6.65;1.30;;;;;;;-144.47;38.23;53132.19;5066339;28;20040;-65
2022/08/07 08:13:02;;;;;;;4.22;1.10;;;;;;;-144.47;37.52;53114.31;5067813;28;20035;-66
2022/08/07 08:15:30;;;;;;;4.88;0.90;;;;;;;-144.47;36.91;53160.00;5068084;28;20017;-67
2022/08/07 08:17:57;;;;;;;4.32;0.93;;;;;;;-144.47;36.94;53144.09;5067101;28;20492;-66
2022/08/07 08:20:24;;;;;;;4.53;1.10;;;;;;;-144.47;36.73;53160.00;5066251;28;20040;-67
2022/08/07 08:28:48;;;;;;;10.35;1.63;;;;;;;-144.47;36.22;53118.28;5004667;28;20082;-66
2022/08/07 08:31:24;;;;;;;1.90;0.90;;;;;;;-144.47;35.83;53161.97;5036823;28;20032;-65
2022/08/07 08:33:53;;;;;;;2.60;0.80;;;;;;;-144.47;35.76;53106.34;5066874;28;20132;-65
2022/08/07 08:36:20;;;;;;;1.00;0.60;;;;;;;-144.47;35.32;53112.31;5065197;28;20020;-66
2022/08/07 08:38:47;;;;;;;4.00;0.82;;;;;;;-144.47;35.11;53144.09;5066298;28;20103;-67
2022/08/07 08:41:46;;;;;;;1.95;0.80;;;;;;;-144.47;35.13;53122.25;5048391;28;20032;-69
2022/08/07 08:44:47;;;;;;;5.50;0.82;;;;;;;-144.47;34.45;53146.09;5066305;28;20043;-68
2022/08/07 08:47:31;;;;;;;1.35;0.60;;;;;;;-144.47;33.30;53148.06;5056323;28;21360;-70
2022/08/07 08:50:05;;;;;;;1.92;0.70;;;;;;;-144.47;33.35;53092.44;5034472;28;20064;-65
2022/08/07 08:52:45;;;;;;;2.88;0.90;;;;;;;-144.47;32.94;53098.41;5053435;28;20035;-68
2022/08/07 08:55:19;;;;;;;5.68;0.88;;;;;;;-144.47;32.78;53084.50;5055074;28;20047;-69
2022/08/07 08:58:11;;;;;;;1.08;0.60;;;;;;;-144.47;32.78;53066.63;5054072;28;20410;-66
2022/08/07 09:00:43;;;;;;;2.22;0.57;;;;;;;-144.47;31.48;53102.38;5053044;28;20032;-68
2022/08/07 09:03:23;;;;;;;4.00;0.75;;;;;;;-144.47;31.31;53074.56;5053857;28;20047;-71
2022/08/07 09:05:51;;;;;;;4.28;1.02;;;;;;;-144.47;31.38;53108.34;5051712;28;20040;-67
2022/08/07 09:08:46;;;;;;;0.75;0.63;;;;;;;-144.47;31.35;53108.34;5051629;28;20033;-69
2022/08/07 09:11:22;;;;;;;3.92;0.60;;;;;;;-144.47;31.21;53112.31;5053252;28;20028;-66
2022/08/07 09:14:30;;;;;;;0.82;0.60;;;;;;;-144.47;30.31;53060.66;5051869;28;20028;-67
2022/08/07 09:17:15;;;;;;;1.95;0.43;;;;;;;-144.47;29.71;53114.31;5045113;28;20143;-70
2022/08/07 09:19:45;;;;;;;4.18;0.70;;;;;;;-144.47;30.33;53128.22;5060187;28;20115;-67
2022/08/07 09:22:21;;;;;;;4.30;1.13;;;;;;;-144.47;30.10;53136.16;5060094;28;20040;-67
2022/08/07 09:25:15;;;;;;;1.40;0.60;;;;;;;-144.47;30.17;53076.56;5041743;28;20029;-66
2022/08/07 09:27:47;;;;;;;4.45;0.73;;;;;;;-144.47;30.62;53080.53;5056254;28;20128;-66
2022/08/07 09:30:13;;;;;;;5.22;0.65;;;;;;;-144.47;30.99;53078.53;5039474;28;20047;-67
2022/08/07 09:33:16;;;;;;;2.95;0.70;;;;;;;-144.47;31.23;53092.44;5057237;28;20044;-68
2022/08/07 09:35:48;;;;;;;2.60;0.70;;;;;;;-144.47;31.22;53046.75;5055790;28;20087;-68
2022/08/07 09:38:32;;;;;;;4.35;1.10;;;;;;;-144.47;30.85;53086.50;5054260;28;20548;-69
2022/08/07 09:41:34;;;;;;;2.83;0.80;;;;;;;-144.47;30.79;53082.53;5057477;28;20048;-68
2022/08/07 09:44:07;;;;;;;1.70;0.65;;;;;;;-144.47;30.61;53102.38;5056369;28;20079;-67
2022/08/07 09:46:45;;;;;;;2.38;0.70;;;;;;;-144.47;30.54;53106.34;5056559;28;20058;-69
2022/08/07 09:49:42;;;;;;;0.90;0.60;;;;;;;-144.47;30.56;53066.63;5059023;28;20025;-70
2022/08/07 09:52:07;;;;;;;1.50;0.75;;;;;;;-144.47;30.49;53058.69;5040170;28;20029;-68
2022/08/07 09:54:45;;;;;;;4.13;0.70;;;;;;;-144.47;30.40;53104.38;5059187;28;20031;-67
2022/08/07 09:57:35;;;;;;;2.60;0.87;;;;;;;-144.47;30.50;53116.28;5057711;28;20548;-68
2022/08/07 10:00:10;;;;;;;4.32;0.85;;;;;;;-144.47;30.39;53064.66;5059653;28;20426;-67
2022/08/07 10:02:56;;;;;;;1.17;0.40;;;;;;;-144.47;30.31;53086.50;5058181;28;20782;-68
2022/08/07 10:05:47;;;;;;;4.15;1.05;;;;;;;-144.47;30.08;53090.47;5057439;28;20497;-70
2022/08/07 10:08:37;;;;;;;3.58;0.75;;;;;;;-144.47;30.38;53086.50;5057851;28;20033;-72
2022/08/07 10:11:41;;;;;;;3.75;0.60;;;;;;;-144.47;30.58;53098.41;5059337;28;20033;-67
2022/08/07 10:14:29;;;;;;;5.85;1.10;;;;;;;-144.47;30.56;53090.47;5057331;28;20055;-74
2022/08/07 10:17:15;;;;;;;1.67;0.80;;;;;;;-144.47;30.29;53098.41;5057789;28;20064;-68
2022/08/07 10:19:59;;;;;;;0.85;0.57;;;;;;;-144.47;30.26;53066.63;5058178;28;20124;-71
2022/08/07 10:22:55;;;;;;;3.97;0.90;;;;;;;-144.47;29.74;53072.59;5055953;28;20658;-70
2022/08/07 10:25:47;;;;;;;2.88;1.00;;;;;;;-144.47;29.52;53106.34;5062414;28;20493;-69
2022/08/07 10:28:31;;;;;;;2.42;0.80;;;;;;;-144.47;29.52;53072.59;5063085;28;20559;-70
2022/08/07 10:31:25;;;;;;;2.28;0.70;;;;;;;-144.47;29.26;53104.38;5067774;28;20486;-69
2022/08/07 10:34:04;;;;;;;4.57;1.00;;;;;;;-144.47;29.14;53102.38;5064138;28;20550;-68
2022/08/07 10:36:55;;;;;;;2.40;0.93;;;;;;;-144.47;29.47;53090.47;5059000;28;20107;-71
2022/08/07 10:39:45;;;;;;;2.38;0.80;;;;;;;-144.47;29.70;53074.56;5067872;28;20084;-69
2022/08/07 10:42:29;;;;;;;2.53;1.00;;;;;;;-144.47;29.82;53042.78;5052637;28;20037;-68
2022/08/07 10:45:08;;;;;;;1.73;0.70;;;;;;;-144.47;29.64;53122.25;5056594;28;20043;-67
2022/08/07 10:47:47;;;;;;;1.23;0.73;;;;;;;-144.47;29.72;53110.31;5052876;28;20033;-68
2022/08/07 10:50:23;;;;;;;2.53;0.70;;;;;;;-144.47;29.11;53074.56;5072625;28;20099;-70
2022/08/07 10:52:51;;;;;;;2.40;0.85;;;;;;;-144.47;28.77;53066.63;5071966;28;20159;-70
2022/08/07 10:55:19;;;;;;;;;;;;;;;-144.47;29.16;53054.72;5071274;28;20027;-68
2022/08/07 10:57:44;;;;;;;3.47;0.77;;;;;;;-144.47;29.12;53078.53;5062481;28;19997;-74
2022/08/07 11:00:14;;;;;;;2.30;0.65;;;;;;;-144.47;29.00;53068.63;5059030;28;20360;-67
2022/08/07 11:03:06;;;;;;;1.70;0.80;;;;;;;-144.47;29.02;53038.81;5058991;28;20739;-70
2022/08/07 11:05:47;;;;;;;1.60;0.70;;;;;;;-144.47;29.11;53082.53;5057678;28;20396;-71
2022/08/07 11:08:36;;;;;;;4.90;1.10;;;;;;;-144.47;29.36;53056.69;5054486;28;20436;-70
2022/08/07 11:11:30;;;;;;;3.60;0.98;;;;;;;-144.47;28.72;53054.72;5059275;28;20094;-69
2022/08/07 11:14:02;;;;;;;4.53;0.70;;;;;;;-144.47;28.72;53052.72;5060120;28;20266;-69
2022/08/07 11:16:33;;;;;;;2.63;0.85;;;;;;;-144.47;28.61;53070.59;5059004;28;21290;-70
2022/08/07 11:19:32;;;;;;;5.75;0.60;;;;;;;-144.47;28.42;53048.75;5053025;28;20032;-70
2022/08/07 11:22:15;;;;;;;8.07;2.88;;;;;;;-144.47;28.34;53074.56;5059436;28;20028;-69
2022/08/07 11:24:59;;;;;;;6.65;1.00;;;;;;;-144.47;28.25;53064.66;5059047;28;20626;-70
2022/08/07 11:27:39;;;;;;;5.30;2.38;;;;;;;-144.47;28.15;53078.53;5061544;28;20055;-69
2022/08/07 11:30:06;;;;;;;2.67;0.90;;;;;;;-144.47;27.59;53042.78;5060227;28;20020;-70
2022/08/07 11:32:46;;;;;;;3.38;0.60;;;;;;;-144.47;27.63;53056.69;5041939;28;20087;-70
2022/08/07 11:35:20;;;;;;;2.85;0.77;;;;;;;-144.47;27.66;53058.69;5058689;28;20028;-70
2022/08/07 11:37:53;;;;;;;1.25;0.70;;;;;;;-144.47;27.75;53096.41;5036087;28;20012;-70
2022/08/07 11:40:30;;;;;;;5.97;0.70;;;;;;;-144.47;27.70;53056.69;5056304;28;20081;-70
2022/08/07 11:43:04;;;;;;;5.20;0.90;;;;;;;-144.47;27.97;53022.94;5055278;28;20039;-70